sensor_id;sensor_type;location;lat;lon;timestamp;P1;durP1;ratioP1;P2;durP2;ratioP2
47715;SDS011;33476;50.984;3.538;2023-01-15T00:00:50;9.50;;;0.40;;
47715;SDS011;33476;50.984;3.538;2023-01-15T00:03:16;4.63;;;0.35;;
47715;SDS011;33476;50.984;3.538;2023-01-15T00:05:42;6.45;;;0.63;;
47715;SDS011;33476;50.984;3.538;2023-01-15T00:08:07;6.85;;;0.90;;
47715;SDS011;33476;50.984;3.538;2023-01-15T00:10:33;10.30;;;0.47;;
47715;SDS011;33476;50.984;3.538;2023-01-15T00:12:59;6.75;;;0.50;;
47715;SDS011;33476;50.984;3.538;2023-01-15T00:15:24;7.55;;;0.60;;
47715;SDS011;33476;50.984;3.538;2023-01-15T00:17:49;14.15;;;0.85;;
47715;SDS011;33476;50.984;3.538;2023-01-15T00:20:15;9.98;;;0.40;;
47715;SDS011;33476;50.984;3.538;2023-01-15T00:22:40;6.32;;;0.30;;
47715;SDS011;33476;50.984;3.538;2023-01-15T00:25:05;8.45;;;0.47;;
47715;SDS011;33476;50.984;3.538;2023-01-15T00:27:50;6.75;;;0.52;;
47715;SDS011;33476;50.984;3.538;2023-01-15T00:30:15;7.70;;;0.70;;
47715;SDS011;33476;50.984;3.538;2023-01-15T00:32:42;12.65;;;0.90;;
47715;SDS011;33476;50.984;3.538;2023-01-15T00:35:26;5.95;;;0.50;;
47715;SDS011;33476;50.984;3.538;2023-01-15T00:37:52;3.22;;;0.30;;
47715;SDS011;33476;50.984;3.538;2023-01-15T00:40:18;8.05;;;0.82;;
47715;SDS011;33476;50.984;3.538;2023-01-15T00:42:44;6.25;;;0.50;;
47715;SDS011;33476;50.984;3.538;2023-01-15T00:45:10;7.57;;;1.00;;
47715;SDS011;33476;50.984;3.538;2023-01-15T00:47:39;6.53;;;0.68;;
47715;SDS011;33476;50.984;3.538;2023-01-15T00:50:15;11.93;;;0.68;;
47715;SDS011;33476;50.984;3.538;2023-01-15T00:52:41;4.55;;;0.55;;
47715;SDS011;33476;50.984;3.538;2023-01-15T00:55:06;6.60;;;0.98;;
47715;SDS011;33476;50.984;3.538;2023-01-15T00:57:32;9.73;;;0.82;;
47715;SDS011;33476;50.984;3.538;2023-01-15T00:59:58;5.97;;;1.02;;
47715;SDS011;33476;50.984;3.538;2023-01-15T01:02:28;7.95;;;0.68;;
47715;SDS011;33476;50.984;3.538;2023-01-15T01:04:55;3.38;;;0.38;;
47715;SDS011;33476;50.984;3.538;2023-01-15T01:07:23;6.45;;;0.95;;
47715;SDS011;33476;50.984;3.538;2023-01-15T01:09:49;7.18;;;1.30;;
47715;SDS011;33476;50.984;3.538;2023-01-15T01:12:14;8.98;;;0.80;;
47715;SDS011;33476;50.984;3.538;2023-01-15T01:14:42;12.63;;;1.73;;
47715;SDS011;33476;50.984;3.538;2023-01-15T01:17:08;7.50;;;1.95;;
47715;SDS011;33476;50.984;3.538;2023-01-15T01:19:33;10.27;;;2.53;;
47715;SDS011;33476;50.984;3.538;2023-01-15T01:22:00;9.52;;;2.85;;
47715;SDS011;33476;50.984;3.538;2023-01-15T01:24:25;14.40;;;2.50;;
47715;SDS011;33476;50.984;3.538;2023-01-15T01:26:56;12.20;;;1.55;;
47715;SDS011;33476;50.984;3.538;2023-01-15T01:29:21;10.13;;;1.05;;
47715;SDS011;33476;50.984;3.538;2023-01-15T01:31:49;5.60;;;0.68;;
47715;SDS011;33476;50.984;3.538;2023-01-15T01:34:20;5.13;;;0.55;;
47715;SDS011;33476;50.984;3.538;2023-01-15T01:36:48;5.13;;;0.52;;
47715;SDS011;33476;50.984;3.538;2023-01-15T01:39:14;10.00;;;0.75;;
47715;SDS011;33476;50.984;3.538;2023-01-15T01:41:42;7.45;;;0.43;;
47715;SDS011;33476;50.984;3.538;2023-01-15T01:46:56;7.47;;;0.60;;
47715;SDS011;33476;50.984;3.538;2023-01-15T01:49:21;3.78;;;0.57;;
47715;SDS011;33476;50.984;3.538;2023-01-15T01:51:58;7.32;;;0.50;;
47715;SDS011;33476;50.984;3.538;2023-01-15T01:54:31;5.25;;;0.90;;
47715;SDS011;33476;50.984;3.538;2023-01-15T01:56:57;6.88;;;0.47;;
47715;SDS011;33476;50.984;3.538;2023-01-15T01:59:25;5.90;;;0.50;;
47715;SDS011;33476;50.984;3.538;2023-01-15T02:01:51;11.05;;;0.70;;
47715;SDS011;33476;50.984;3.538;2023-01-15T02:04:17;8.20;;;0.43;;
47715;SDS011;33476;50.984;3.538;2023-01-15T02:06:45;6.38;;;0.63;;
47715;SDS011;33476;50.984;3.538;2023-01-15T02:09:10;10.30;;;0.60;;
47715;SDS011;33476;50.984;3.538;2023-01-15T02:11:38;6.68;;;0.77;;
47715;SDS011;33476;50.984;3.538;2023-01-15T02:16:42;7.07;;;0.95;;
47715;SDS011;33476;50.984;3.538;2023-01-15T02:28:20;10.82;;;0.70;;
47715;SDS011;33476;50.984;3.538;2023-01-15T02:30:58;9.20;;;0.98;;
47715;SDS011;33476;50.984;3.538;2023-01-15T02:36:27;8.80;;;0.65;;
47715;SDS011;33476;50.984;3.538;2023-01-15T02:38:57;5.70;;;0.52;;
47715;SDS011;33476;50.984;3.538;2023-01-15T02:41:30;6.57;;;0.82;;
47715;SDS011;33476;50.984;3.538;2023-01-15T02:44:00;5.53;;;0.88;;
47715;SDS011;33476;50.984;3.538;2023-01-15T02:46:29;6.35;;;0.47;;
47715;SDS011;33476;50.984;3.538;2023-01-15T02:48:58;6.90;;;0.40;;
47715;SDS011;33476;50.984;3.538;2023-01-15T02:51:29;7.88;;;0.38;;
47715;SDS011;33476;50.984;3.538;2023-01-15T02:54:00;4.38;;;0.43;;
47715;SDS011;33476;50.984;3.538;2023-01-15T02:56:32;4.75;;;0.57;;
47715;SDS011;33476;50.984;3.538;2023-01-15T02:59:03;5.45;;;0.50;;
47715;SDS011;33476;50.984;3.538;2023-01-15T03:01:40;5.18;;;0.30;;
47715;SDS011;33476;50.984;3.538;2023-01-15T03:04:11;6.53;;;0.40;;
47715;SDS011;33476;50.984;3.538;2023-01-15T03:09:25;6.80;;;0.40;;
47715;SDS011;33476;50.984;3.538;2023-01-15T03:14:33;7.82;;;0.50;;
47715;SDS011;33476;50.984;3.538;2023-01-15T03:17:04;6.88;;;0.55;;
47715;SDS011;33476;50.984;3.538;2023-01-15T03:19:40;6.38;;;0.77;;
47715;SDS011;33476;50.984;3.538;2023-01-15T03:22:54;6.80;;;0.40;;
47715;SDS011;33476;50.984;3.538;2023-01-15T03:25:20;7.45;;;0.40;;
47715;SDS011;33476;50.984;3.538;2023-01-15T03:27:55;3.63;;;0.60;;
47715;SDS011;33476;50.984;3.538;2023-01-15T03:30:26;7.00;;;0.50;;
47715;SDS011;33476;50.984;3.538;2023-01-15T03:32:54;8.43;;;0.65;;
47715;SDS011;33476;50.984;3.538;2023-01-15T03:38:13;4.93;;;0.53;;
47715;SDS011;33476;50.984;3.538;2023-01-15T03:40:47;4.72;;;0.40;;
47715;SDS011;33476;50.984;3.538;2023-01-15T03:46:18;6.97;;;0.50;;
47715;SDS011;33476;50.984;3.538;2023-01-15T03:49:31;12.07;;;1.08;;
47715;SDS011;33476;50.984;3.538;2023-01-15T03:57:32;5.80;;;0.82;;
47715;SDS011;33476;50.984;3.538;2023-01-15T04:00:09;11.07;;;0.73;;
47715;SDS011;33476;50.984;3.538;2023-01-15T04:02:42;6.78;;;0.55;;
47715;SDS011;33476;50.984;3.538;2023-01-15T04:05:09;4.18;;;0.32;;
47715;SDS011;33476;50.984;3.538;2023-01-15T04:07:38;7.68;;;0.55;;
47715;SDS011;33476;50.984;3.538;2023-01-15T04:10:06;6.43;;;0.70;;
47715;SDS011;33476;50.984;3.538;2023-01-15T04:12:34;7.68;;;0.80;;
47715;SDS011;33476;50.984;3.538;2023-01-15T04:15:02;3.78;;;0.50;;
47715;SDS011;33476;50.984;3.538;2023-01-15T04:17:28;4.32;;;0.30;;
47715;SDS011;33476;50.984;3.538;2023-01-15T04:19:53;7.38;;;0.93;;
47715;SDS011;33476;50.984;3.538;2023-01-15T04:22:19;4.88;;;0.73;;
47715;SDS011;33476;50.984;3.538;2023-01-15T04:24:44;4.20;;;0.43;;
47715;SDS011;33476;50.984;3.538;2023-01-15T04:27:12;10.93;;;0.73;;
47715;SDS011;33476;50.984;3.538;2023-01-15T04:29:40;4.35;;;1.00;;
47715;SDS011;33476;50.984;3.538;2023-01-15T04:32:08;7.63;;;0.70;;
47715;SDS011;33476;50.984;3.538;2023-01-15T04:34:34;6.85;;;0.60;;
47715;SDS011;33476;50.984;3.538;2023-01-15T04:36:59;5.53;;;0.43;;
47715;SDS011;33476;50.984;3.538;2023-01-15T04:39:25;8.30;;;0.50;;
47715;SDS011;33476;50.984;3.538;2023-01-15T04:41:50;4.00;;;0.50;;
47715;SDS011;33476;50.984;3.538;2023-01-15T04:44:34;5.43;;;0.55;;
47715;SDS011;33476;50.984;3.538;2023-01-15T04:47:00;12.82;;;0.93;;
47715;SDS011;33476;50.984;3.538;2023-01-15T04:49:26;6.60;;;0.40;;
47715;SDS011;33476;50.984;3.538;2023-01-15T04:51:51;8.00;;;0.28;;
47715;SDS011;33476;50.984;3.538;2023-01-15T04:54:17;8.95;;;0.50;;
47715;SDS011;33476;50.984;3.538;2023-01-15T04:56:46;7.13;;;0.50;;
47715;SDS011;33476;50.984;3.538;2023-01-15T04:59:15;4.95;;;0.40;;
47715;SDS011;33476;50.984;3.538;2023-01-15T05:01:41;3.28;;;0.50;;
47715;SDS011;33476;50.984;3.538;2023-01-15T05:04:07;7.03;;;0.30;;
47715;SDS011;33476;50.984;3.538;2023-01-15T05:06:35;8.40;;;0.50;;
47715;SDS011;33476;50.984;3.538;2023-01-15T05:09:00;6.70;;;0.38;;
47715;SDS011;33476;50.984;3.538;2023-01-15T05:11:27;4.55;;;0.50;;
47715;SDS011;33476;50.984;3.538;2023-01-15T05:13:52;4.75;;;0.50;;
47715;SDS011;33476;50.984;3.538;2023-01-15T05:16:23;6.38;;;0.43;;
47715;SDS011;33476;50.984;3.538;2023-01-15T05:18:50;5.43;;;0.40;;
47715;SDS011;33476;50.984;3.538;2023-01-15T05:21:22;1.77;;;0.20;;
47715;SDS011;33476;50.984;3.538;2023-01-15T05:23:50;1.02;;;0.25;;
47715;SDS011;33476;50.984;3.538;2023-01-15T05:26:21;6.38;;;0.70;;
47715;SDS011;33476;50.984;3.538;2023-01-15T05:28:48;2.63;;;0.57;;
47715;SDS011;33476;50.984;3.538;2023-01-15T05:31:15;2.83;;;0.47;;
47715;SDS011;33476;50.984;3.538;2023-01-15T05:33:42;2.10;;;0.65;;
47715;SDS011;33476;50.984;3.538;2023-01-15T05:36:12;5.30;;;1.02;;
47715;SDS011;33476;50.984;3.538;2023-01-15T05:38:47;3.40;;;1.15;;
47715;SDS011;33476;50.984;3.538;2023-01-15T05:41:14;2.20;;;0.63;;
47715;SDS011;33476;50.984;3.538;2023-01-15T05:44:00;1.88;;;0.35;;
47715;SDS011;33476;50.984;3.538;2023-01-15T05:46:27;5.57;;;0.32;;
47715;SDS011;33476;50.984;3.538;2023-01-15T05:48:53;4.97;;;0.30;;
47715;SDS011;33476;50.984;3.538;2023-01-15T05:51:18;4.28;;;0.50;;
47715;SDS011;33476;50.984;3.538;2023-01-15T05:53:46;8.43;;;0.40;;
47715;SDS011;33476;50.984;3.538;2023-01-15T05:56:12;4.82;;;0.38;;
47715;SDS011;33476;50.984;3.538;2023-01-15T05:58:37;2.72;;;0.45;;
47715;SDS011;33476;50.984;3.538;2023-01-15T06:01:06;4.25;;;0.40;;
47715;SDS011;33476;50.984;3.538;2023-01-15T06:03:32;6.40;;;0.50;;
47715;SDS011;33476;50.984;3.538;2023-01-15T06:05:58;4.03;;;0.20;;
47715;SDS011;33476;50.984;3.538;2023-01-15T06:08:23;7.55;;;0.90;;
47715;SDS011;33476;50.984;3.538;2023-01-15T06:10:51;6.15;;;0.70;;
47715;SDS011;33476;50.984;3.538;2023-01-15T06:13:17;6.57;;;0.47;;
47715;SDS011;33476;50.984;3.538;2023-01-15T06:15:42;11.38;;;0.45;;
47715;SDS011;33476;50.984;3.538;2023-01-15T06:18:09;6.20;;;0.60;;
47715;SDS011;33476;50.984;3.538;2023-01-15T06:20:35;3.42;;;0.57;;
47715;SDS011;33476;50.984;3.538;2023-01-15T06:23:01;6.72;;;0.68;;
47715;SDS011;33476;50.984;3.538;2023-01-15T06:25:26;3.70;;;0.60;;
47715;SDS011;33476;50.984;3.538;2023-01-15T06:27:54;12.07;;;1.00;;
47715;SDS011;33476;50.984;3.538;2023-01-15T06:30:22;10.40;;;1.15;;
47715;SDS011;33476;50.984;3.538;2023-01-15T06:32:48;4.85;;;0.55;;
47715;SDS011;33476;50.984;3.538;2023-01-15T06:35:13;3.80;;;0.70;;
47715;SDS011;33476;50.984;3.538;2023-01-15T06:37:44;5.47;;;0.60;;
47715;SDS011;33476;50.984;3.538;2023-01-15T06:40:11;9.70;;;0.93;;
47715;SDS011;33476;50.984;3.538;2023-01-15T06:42:37;6.10;;;0.80;;
47715;SDS011;33476;50.984;3.538;2023-01-15T06:45:27;5.53;;;0.40;;
47715;SDS011;33476;50.984;3.538;2023-01-15T06:48:19;3.28;;;0.25;;
47715;SDS011;33476;50.984;3.538;2023-01-15T06:50:52;5.38;;;0.30;;
47715;SDS011;33476;50.984;3.538;2023-01-15T06:53:23;5.43;;;0.40;;
47715;SDS011;33476;50.984;3.538;2023-01-15T06:55:48;8.07;;;0.70;;
47715;SDS011;33476;50.984;3.538;2023-01-15T06:58:17;4.97;;;0.60;;
47715;SDS011;33476;50.984;3.538;2023-01-15T07:00:45;5.63;;;0.40;;
47715;SDS011;33476;50.984;3.538;2023-01-15T07:03:17;4.25;;;0.32;;
47715;SDS011;33476;50.984;3.538;2023-01-15T07:05:42;6.80;;;0.88;;
47715;SDS011;33476;50.984;3.538;2023-01-15T07:08:08;6.47;;;0.47;;
47715;SDS011;33476;50.984;3.538;2023-01-15T07:10:33;6.90;;;0.68;;
47715;SDS011;33476;50.984;3.538;2023-01-15T07:12:59;11.85;;;1.02;;
47715;SDS011;33476;50.984;3.538;2023-01-15T07:15:25;7.63;;;0.60;;
47715;SDS011;33476;50.984;3.538;2023-01-15T07:17:54;7.03;;;0.70;;
47715;SDS011;33476;50.984;3.538;2023-01-15T07:20:19;7.38;;;0.60;;
47715;SDS011;33476;50.984;3.538;2023-01-15T07:22:47;7.90;;;0.70;;
47715;SDS011;33476;50.984;3.538;2023-01-15T07:25:13;9.02;;;0.70;;
47715;SDS011;33476;50.984;3.538;2023-01-15T07:27:47;8.63;;;1.50;;
47715;SDS011;33476;50.984;3.538;2023-01-15T07:30:15;5.20;;;0.60;;
47715;SDS011;33476;50.984;3.538;2023-01-15T07:32:43;9.27;;;0.57;;
47715;SDS011;33476;50.984;3.538;2023-01-15T07:35:09;7.65;;;0.98;;
47715;SDS011;33476;50.984;3.538;2023-01-15T07:37:37;5.80;;;0.40;;
47715;SDS011;33476;50.984;3.538;2023-01-15T07:40:14;6.40;;;0.80;;
47715;SDS011;33476;50.984;3.538;2023-01-15T07:42:40;4.85;;;0.75;;
47715;SDS011;33476;50.984;3.538;2023-01-15T07:45:23;6.13;;;0.95;;
47715;SDS011;33476;50.984;3.538;2023-01-15T07:48:08;4.95;;;0.63;;
47715;SDS011;33476;50.984;3.538;2023-01-15T07:50:53;4.75;;;0.57;;
47715;SDS011;33476;50.984;3.538;2023-01-15T07:53:21;4.82;;;0.95;;
47715;SDS011;33476;50.984;3.538;2023-01-15T07:55:49;7.35;;;1.00;;
47715;SDS011;33476;50.984;3.538;2023-01-15T07:58:21;5.80;;;0.50;;
47715;SDS011;33476;50.984;3.538;2023-01-15T08:00:46;7.07;;;0.60;;
47715;SDS011;33476;50.984;3.538;2023-01-15T08:03:11;3.55;;;0.50;;
47715;SDS011;33476;50.984;3.538;2023-01-15T08:05:37;10.35;;;0.85;;
47715;SDS011;33476;50.984;3.538;2023-01-15T08:08:05;5.65;;;0.75;;
47715;SDS011;33476;50.984;3.538;2023-01-15T08:10:40;7.20;;;0.88;;
47715;SDS011;33476;50.984;3.538;2023-01-15T08:13:24;6.80;;;0.85;;
47715;SDS011;33476;50.984;3.538;2023-01-15T08:16:08;8.60;;;0.60;;
47715;SDS011;33476;50.984;3.538;2023-01-15T08:18:38;11.55;;;0.63;;
47715;SDS011;33476;50.984;3.538;2023-01-15T08:21:11;12.38;;;1.13;;
47715;SDS011;33476;50.984;3.538;2023-01-15T08:23:41;8.35;;;1.17;;
47715;SDS011;33476;50.984;3.538;2023-01-15T08:26:10;8.93;;;0.70;;
47715;SDS011;33476;50.984;3.538;2023-01-15T08:28:38;8.43;;;1.02;;
47715;SDS011;33476;50.984;3.538;2023-01-15T08:31:06;12.40;;;1.13;;
47715;SDS011;33476;50.984;3.538;2023-01-15T08:33:32;11.93;;;0.90;;
47715;SDS011;33476;50.984;3.538;2023-01-15T08:35:58;8.70;;;0.73;;
47715;SDS011;33476;50.984;3.538;2023-01-15T08:38:32;4.18;;;0.40;;
47715;SDS011;33476;50.984;3.538;2023-01-15T08:40:57;5.53;;;0.63;;
47715;SDS011;33476;50.984;3.538;2023-01-15T08:43:23;6.13;;;0.85;;
47715;SDS011;33476;50.984;3.538;2023-01-15T08:45:54;9.73;;;1.00;;
47715;SDS011;33476;50.984;3.538;2023-01-15T08:48:21;8.63;;;0.93;;
47715;SDS011;33476;50.984;3.538;2023-01-15T08:50:50;5.82;;;0.35;;
47715;SDS011;33476;50.984;3.538;2023-01-15T08:53:15;6.75;;;0.40;;
47715;SDS011;33476;50.984;3.538;2023-01-15T08:55:43;5.50;;;0.57;;
47715;SDS011;33476;50.984;3.538;2023-01-15T08:58:14;12.30;;;1.08;;
47715;SDS011;33476;50.984;3.538;2023-01-15T09:00:41;5.00;;;0.50;;
47715;SDS011;33476;50.984;3.538;2023-01-15T09:03:07;8.38;;;1.23;;
47715;SDS011;33476;50.984;3.538;2023-01-15T09:05:35;7.10;;;0.80;;
47715;SDS011;33476;50.984;3.538;2023-01-15T09:08:03;9.40;;;1.02;;
47715;SDS011;33476;50.984;3.538;2023-01-15T09:10:32;6.03;;;0.52;;
47715;SDS011;33476;50.984;3.538;2023-01-15T09:12:59;6.35;;;0.60;;
47715;SDS011;33476;50.984;3.538;2023-01-15T09:15:26;6.97;;;0.38;;
47715;SDS011;33476;50.984;3.538;2023-01-15T09:17:55;4.97;;;0.40;;
47715;SDS011;33476;50.984;3.538;2023-01-15T09:20:21;7.13;;;0.60;;
47715;SDS011;33476;50.984;3.538;2023-01-15T09:22:49;7.60;;;0.93;;
47715;SDS011;33476;50.984;3.538;2023-01-15T09:25:15;2.45;;;0.40;;
47715;SDS011;33476;50.984;3.538;2023-01-15T09:27:43;4.18;;;0.20;;
47715;SDS011;33476;50.984;3.538;2023-01-15T09:30:29;6.03;;;0.40;;
47715;SDS011;33476;50.984;3.538;2023-01-15T09:32:54;2.25;;;0.35;;
47715;SDS011;33476;50.984;3.538;2023-01-15T09:35:19;1.83;;;0.15;;
47715;SDS011;33476;50.984;3.538;2023-01-15T09:37:50;2.80;;;0.30;;
47715;SDS011;33476;50.984;3.538;2023-01-15T09:41:00;2.05;;;0.10;;
47715;SDS011;33476;50.984;3.538;2023-01-15T09:46:22;2.97;;;0.17;;
47715;SDS011;33476;50.984;3.538;2023-01-15T09:48:57;8.02;;;0.47;;
47715;SDS011;33476;50.984;3.538;2023-01-15T09:51:51;3.92;;;0.40;;
47715;SDS011;33476;50.984;3.538;2023-01-15T09:57:08;4.45;;;0.20;;
47715;SDS011;33476;50.984;3.538;2023-01-15T09:59:42;2.45;;;0.10;;
47715;SDS011;33476;50.984;3.538;2023-01-15T10:02:24;2.50;;;0.20;;
47715;SDS011;33476;50.984;3.538;2023-01-15T10:05:03;2.15;;;0.40;;
47715;SDS011;33476;50.984;3.538;2023-01-15T10:10:10;2.30;;;0.20;;
47715;SDS011;33476;50.984;3.538;2023-01-15T10:12:42;1.88;;;0.10;;
47715;SDS011;33476;50.984;3.538;2023-01-15T10:20:13;2.05;;;0.20;;
47715;SDS011;33476;50.984;3.538;2023-01-15T10:30:56;2.58;;;0.20;;
47715;SDS011;33476;50.984;3.538;2023-01-15T10:39:15;3.67;;;0.40;;
47715;SDS011;33476;50.984;3.538;2023-01-15T10:45:12;5.05;;;0.40;;
47715;SDS011;33476;50.984;3.538;2023-01-15T10:47:42;2.40;;;0.30;;
47715;SDS011;33476;50.984;3.538;2023-01-15T10:50:17;4.38;;;0.22;;
47715;SDS011;33476;50.984;3.538;2023-01-15T10:55:49;1.10;;;0.10;;
47715;SDS011;33476;50.984;3.538;2023-01-15T11:01:22;6.18;;;0.40;;
47715;SDS011;33476;50.984;3.538;2023-01-15T11:03:50;3.03;;;0.50;;
47715;SDS011;33476;50.984;3.538;2023-01-15T11:06:20;3.63;;;0.40;;
47715;SDS011;33476;50.984;3.538;2023-01-15T11:08:50;2.05;;;0.30;;
47715;SDS011;33476;50.984;3.538;2023-01-15T11:11:21;3.03;;;0.30;;
47715;SDS011;33476;50.984;3.538;2023-01-15T11:16:52;1.40;;;0.20;;
47715;SDS011;33476;50.984;3.538;2023-01-15T11:19:37;4.13;;;0.55;;
47715;SDS011;33476;50.984;3.538;2023-01-15T11:22:14;4.50;;;0.55;;
47715;SDS011;33476;50.984;3.538;2023-01-15T11:24:45;4.20;;;0.30;;
47715;SDS011;33476;50.984;3.538;2023-01-15T11:27:15;4.95;;;0.50;;
47715;SDS011;33476;50.984;3.538;2023-01-15T11:29:43;2.58;;;0.50;;
47715;SDS011;33476;50.984;3.538;2023-01-15T11:34:54;4.65;;;0.40;;
47715;SDS011;33476;50.984;3.538;2023-01-15T11:37:24;2.60;;;0.20;;
47715;SDS011;33476;50.984;3.538;2023-01-15T11:39:53;4.25;;;0.22;;
47715;SDS011;33476;50.984;3.538;2023-01-15T11:42:20;3.25;;;0.43;;
47715;SDS011;33476;50.984;3.538;2023-01-15T11:45:11;1.42;;;0.13;;
47715;SDS011;33476;50.984;3.538;2023-01-15T11:48:00;4.07;;;0.30;;
47715;SDS011;33476;50.984;3.538;2023-01-15T11:50:56;5.13;;;0.20;;
47715;SDS011;33476;50.984;3.538;2023-01-15T11:53:31;2.88;;;0.40;;
47715;SDS011;33476;50.984;3.538;2023-01-15T11:55:58;2.95;;;0.50;;
47715;SDS011;33476;50.984;3.538;2023-01-15T11:58:27;3.47;;;0.40;;
47715;SDS011;33476;50.984;3.538;2023-01-15T12:00:56;5.07;;;0.30;;
47715;SDS011;33476;50.984;3.538;2023-01-15T12:03:28;3.13;;;0.20;;
47715;SDS011;33476;50.984;3.538;2023-01-15T12:06:00;4.50;;;0.30;;
47715;SDS011;33476;50.984;3.538;2023-01-15T12:08:41;3.85;;;0.40;;
47715;SDS011;33476;50.984;3.538;2023-01-15T12:22:49;2.00;;;0.60;;
47715;SDS011;33476;50.984;3.538;2023-01-15T12:25:31;2.28;;;0.32;;
47715;SDS011;33476;50.984;3.538;2023-01-15T12:28:12;3.95;;;0.30;;
47715;SDS011;33476;50.984;3.538;2023-01-15T12:30:46;4.60;;;0.47;;
47715;SDS011;33476;50.984;3.538;2023-01-15T12:33:27;5.13;;;0.45;;
47715;SDS011;33476;50.984;3.538;2023-01-15T12:38:43;2.10;;;0.25;;
47715;SDS011;33476;50.984;3.538;2023-01-15T12:41:11;4.20;;;0.40;;
47715;SDS011;33476;50.984;3.538;2023-01-15T12:43:42;6.68;;;0.40;;
47715;SDS011;33476;50.984;3.538;2023-01-15T12:46:32;2.38;;;0.20;;
47715;SDS011;33476;50.984;3.538;2023-01-15T12:49:02;5.35;;;0.57;;
47715;SDS011;33476;50.984;3.538;2023-01-15T12:51:52;3.65;;;0.30;;
47715;SDS011;33476;50.984;3.538;2023-01-15T12:54:31;2.95;;;0.30;;
47715;SDS011;33476;50.984;3.538;2023-01-15T12:57:23;3.10;;;0.20;;
47715;SDS011;33476;50.984;3.538;2023-01-15T13:00:00;1.45;;;0.20;;
47715;SDS011;33476;50.984;3.538;2023-01-15T13:10:40;0.90;;;0.10;;
47715;SDS011;33476;50.984;3.538;2023-01-15T13:18:29;1.38;;;0.10;;
47715;SDS011;33476;50.984;3.538;2023-01-15T13:21:12;3.83;;;0.22;;
47715;SDS011;33476;50.984;3.538;2023-01-15T13:30:36;1.80;;;0.10;;
47715;SDS011;33476;50.984;3.538;2023-01-15T13:32:46;2.92;;;0.20;;
47715;SDS011;33476;50.984;3.538;2023-01-15T13:38:02;1.90;;;0.17;;
47715;SDS011;33476;50.984;3.538;2023-01-15T13:40:40;2.30;;;0.20;;
47715;SDS011;33476;50.984;3.538;2023-01-15T13:43:35;3.13;;;0.17;;
47715;SDS011;33476;50.984;3.538;2023-01-15T13:46:08;1.75;;;0.20;;
47715;SDS011;33476;50.984;3.538;2023-01-15T13:48:40;1.02;;;0.10;;
47715;SDS011;33476;50.984;3.538;2023-01-15T13:51:19;1.67;;;0.40;;
47715;SDS011;33476;50.984;3.538;2023-01-15T13:53:50;1.50;;;0.22;;
47715;SDS011;33476;50.984;3.538;2023-01-15T13:56:24;1.00;;;0.20;;
47715;SDS011;33476;50.984;3.538;2023-01-15T13:59:03;1.65;;;0.20;;
47715;SDS011;33476;50.984;3.538;2023-01-15T14:01:32;2.25;;;0.30;;
47715;SDS011;33476;50.984;3.538;2023-01-15T14:19:56;2.47;;;0.40;;
47715;SDS011;33476;50.984;3.538;2023-01-15T14:39:51;2.28;;;0.20;;
47715;SDS011;33476;50.984;3.538;2023-01-15T14:45:17;2.13;;;0.20;;
47715;SDS011;33476;50.984;3.538;2023-01-15T14:47:49;2.85;;;0.30;;
47715;SDS011;33476;50.984;3.538;2023-01-15T14:50:41;2.35;;;0.20;;
47715;SDS011;33476;50.984;3.538;2023-01-15T14:58:30;4.63;;;0.28;;
47715;SDS011;33476;50.984;3.538;2023-01-15T15:03:50;3.22;;;0.70;;
47715;SDS011;33476;50.984;3.538;2023-01-15T15:06:21;3.22;;;0.50;;
47715;SDS011;33476;50.984;3.538;2023-01-15T15:08:47;2.33;;;0.20;;
47715;SDS011;33476;50.984;3.538;2023-01-15T15:11:17;1.42;;;0.20;;
47715;SDS011;33476;50.984;3.538;2023-01-15T15:14:06;0.70;;;0.17;;
47715;SDS011;33476;50.984;3.538;2023-01-15T15:16:34;1.52;;;0.13;;
47715;SDS011;33476;50.984;3.538;2023-01-15T15:19:17;1.52;;;0.10;;
47715;SDS011;33476;50.984;3.538;2023-01-15T15:22:09;1.25;;;0.10;;
47715;SDS011;33476;50.984;3.538;2023-01-15T15:24:44;0.40;;;0.10;;
47715;SDS011;33476;50.984;3.538;2023-01-15T15:27:14;4.30;;;0.32;;
47715;SDS011;33476;50.984;3.538;2023-01-15T15:29:43;1.15;;;0.20;;
47715;SDS011;33476;50.984;3.538;2023-01-15T15:32:10;3.70;;;0.20;;
47715;SDS011;33476;50.984;3.538;2023-01-15T15:34:39;2.10;;;0.20;;
47715;SDS011;33476;50.984;3.538;2023-01-15T15:37:22;3.05;;;0.30;;
47715;SDS011;33476;50.984;3.538;2023-01-15T15:39:57;3.15;;;0.30;;
47715;SDS011;33476;50.984;3.538;2023-01-15T15:45:51;2.90;;;0.30;;
47715;SDS011;33476;50.984;3.538;2023-01-15T15:48:37;3.35;;;0.50;;
47715;SDS011;33476;50.984;3.538;2023-01-15T15:51:22;1.42;;;0.10;;
47715;SDS011;33476;50.984;3.538;2023-01-15T15:57:04;8.07;;;1.70;;
47715;SDS011;33476;50.984;3.538;2023-01-15T16:02:13;5.38;;;0.73;;
47715;SDS011;33476;50.984;3.538;2023-01-15T16:04:58;2.92;;;0.30;;
47715;SDS011;33476;50.984;3.538;2023-01-15T16:07:27;1.77;;;0.57;;
47715;SDS011;33476;50.984;3.538;2023-01-15T16:12:43;1.05;;;0.30;;
47715;SDS011;33476;50.984;3.538;2023-01-15T16:15:31;0.50;;;0.10;;
47715;SDS011;33476;50.984;3.538;2023-01-15T16:18:03;2.92;;;0.10;;
47715;SDS011;33476;50.984;3.538;2023-01-15T16:20:29;2.53;;;0.20;;
47715;SDS011;33476;50.984;3.538;2023-01-15T16:23:00;3.88;;;0.40;;
47715;SDS011;33476;50.984;3.538;2023-01-15T16:25:36;0.40;;;0.10;;
47715;SDS011;33476;50.984;3.538;2023-01-15T16:28:04;0.63;;;0.10;;
47715;SDS011;33476;50.984;3.538;2023-01-15T16:30:31;1.88;;;0.30;;
47715;SDS011;33476;50.984;3.538;2023-01-15T16:33:06;1.25;;;0.40;;
47715;SDS011;33476;50.984;3.538;2023-01-15T16:35:35;1.88;;;0.30;;
47715;SDS011;33476;50.984;3.538;2023-01-15T16:38:03;0.77;;;0.20;;
47715;SDS011;33476;50.984;3.538;2023-01-15T16:40:43;2.20;;;0.22;;
47715;SDS011;33476;50.984;3.538;2023-01-15T16:43:11;2.90;;;0.32;;
47715;SDS011;33476;50.984;3.538;2023-01-15T16:51:55;3.95;;;0.60;;
47715;SDS011;33476;50.984;3.538;2023-01-15T17:01:57;5.32;;;0.70;;
47715;SDS011;33476;50.984;3.538;2023-01-15T17:07:13;2.88;;;0.68;;
47715;SDS011;33476;50.984;3.538;2023-01-15T17:09:45;3.67;;;0.70;;
47715;SDS011;33476;50.984;3.538;2023-01-15T17:12:27;2.72;;;0.55;;
47715;SDS011;33476;50.984;3.538;2023-01-15T17:17:39;2.38;;;0.93;;
47715;SDS011;33476;50.984;3.538;2023-01-15T17:20:07;4.15;;;0.70;;
47715;SDS011;33476;50.984;3.538;2023-01-15T17:22:33;3.45;;;0.57;;
47715;SDS011;33476;50.984;3.538;2023-01-15T17:25:00;1.65;;;0.50;;
47715;SDS011;33476;50.984;3.538;2023-01-15T17:27:27;4.13;;;0.68;;
47715;SDS011;33476;50.984;3.538;2023-01-15T17:29:54;6.18;;;1.98;;
47715;SDS011;33476;50.984;3.538;2023-01-15T17:32:21;5.65;;;0.95;;
47715;SDS011;33476;50.984;3.538;2023-01-15T17:34:52;3.22;;;0.68;;
47715;SDS011;33476;50.984;3.538;2023-01-15T17:37:17;4.38;;;1.13;;
47715;SDS011;33476;50.984;3.538;2023-01-15T17:39:43;3.45;;;0.90;;
47715;SDS011;33476;50.984;3.538;2023-01-15T17:42:15;2.10;;;0.80;;
47715;SDS011;33476;50.984;3.538;2023-01-15T17:44:42;3.50;;;1.02;;
47715;SDS011;33476;50.984;3.538;2023-01-15T17:47:07;3.53;;;0.80;;
47715;SDS011;33476;50.984;3.538;2023-01-15T17:49:33;4.50;;;1.40;;
47715;SDS011;33476;50.984;3.538;2023-01-15T17:51:59;4.13;;;1.30;;
47715;SDS011;33476;50.984;3.538;2023-01-15T17:54:26;3.83;;;1.10;;
47715;SDS011;33476;50.984;3.538;2023-01-15T17:57:18;9.52;;;3.78;;
47715;SDS011;33476;50.984;3.538;2023-01-15T18:00:02;10.93;;;3.78;;
47715;SDS011;33476;50.984;3.538;2023-01-15T18:02:46;13.57;;;3.63;;
47715;SDS011;33476;50.984;3.538;2023-01-15T18:05:31;9.07;;;1.73;;
47715;SDS011;33476;50.984;3.538;2023-01-15T18:08:03;5.20;;;1.70;;
47715;SDS011;33476;50.984;3.538;2023-01-15T18:10:30;6.65;;;1.55;;
47715;SDS011;33476;50.984;3.538;2023-01-15T18:12:56;4.82;;;1.35;;
47715;SDS011;33476;50.984;3.538;2023-01-15T18:15:22;2.42;;;0.70;;
47715;SDS011;33476;50.984;3.538;2023-01-15T18:17:47;5.45;;;0.63;;